FLX15 SBHT-SBBE
Flight info
| Callsign | FLX15 |
|---|---|
| Flight time | 1h 18m |
| Altitude | 29000 |
| Route | PAKUT |
| Aircraft | TBM8/L-SDFGRWY/S |
Departure
| Time | 2026-05-04 01:03 |
|---|---|
| Airport | Altamira Interstate Airport (SBHT) |
Arrival
| Time | 2026-05-04 02:22 |
|---|---|
| Airport | Val de Cans/Júlio Cezar Ribeiro International Airport (SBBE) |
| Time | Latitude | Longitude | Altitude | Speed | Heading |
|---|---|---|---|---|---|
| 2026-05-04 00:50 | -3.25211 | -52.24963 | 368 ft | 0 kts | 323° |
| 2026-05-04 00:58 | -3.25209 | -52.24965 | 368 ft | 4 kts | 298° |
| 2026-05-04 00:58 | -3.25241 | -52.24991 | 368 ft | 6 kts | 228° |
| 2026-05-04 00:58 | -3.25269 | -52.25020 | 369 ft | 5 kts | 234° |
| 2026-05-04 00:59 | -3.25269 | -52.25045 | 369 ft | 2 kts | 297° |
| 2026-05-04 00:59 | -3.25267 | -52.25049 | 369 ft | 0 kts | 296° |
| 2026-05-04 01:00 | -3.25219 | -52.25100 | 369 ft | 21 kts | 319° |
| 2026-05-04 01:00 | -3.25183 | -52.25240 | 371 ft | 30 kts | 231° |
| 2026-05-04 01:00 | -3.25354 | -52.25455 | 372 ft | 49 kts | 231° |
| 2026-05-04 01:01 | -3.25579 | -52.25740 | 373 ft | 52 kts | 231° |
| 2026-05-04 01:01 | -3.25800 | -52.26021 | 376 ft | 37 kts | 231° |
| 2026-05-04 01:01 | -3.25866 | -52.26078 | 378 ft | 7 kts | 318° |
| 2026-05-04 01:01 | -3.25834 | -52.26063 | 377 ft | 5 kts | 45° |
| 2026-05-04 01:02 | -3.25822 | -52.26047 | 377 ft | 0 kts | 52° |
| 2026-05-04 01:02 | -3.25819 | -52.26044 | 377 ft | 0 kts | 55° |
| 2026-05-04 01:03 | -3.25771 | -52.25982 | 376 ft | 34 kts | 51° |
| 2026-05-04 01:03 | -3.25506 | -52.25646 | 373 ft | 87 kts | 52° |
| 2026-05-04 01:03 | -3.25047 | -52.25068 | 395 ft | 125 kts | 52° |
| 2026-05-04 01:03 | -3.24523 | -52.24400 | 1060 ft | 95 kts | 46° |
| 2026-05-04 01:04 | -3.23953 | -52.23927 | 1290 ft | 125 kts | 31° |
| 2026-05-04 01:04 | -3.23143 | -52.23452 | 1661 ft | 133 kts | 22° |
| 2026-05-04 01:04 | -3.22279 | -52.23248 | 2241 ft | 126 kts | 29° |
| 2026-05-04 01:04 | -3.21787 | -52.22542 | 2711 ft | 126 kts | 63° |
| 2026-05-04 01:05 | -3.21219 | -52.21902 | 3168 ft | 127 kts | 41° |
| 2026-05-04 01:05 | -3.20553 | -52.21295 | 3604 ft | 129 kts | 44° |
| 2026-05-04 01:05 | -3.19882 | -52.20692 | 4026 ft | 130 kts | 43° |
| 2026-05-04 01:05 | -3.19205 | -52.20094 | 4485 ft | 131 kts | 43° |
| 2026-05-04 01:06 | -3.18519 | -52.19490 | 4940 ft | 131 kts | 44° |
| 2026-05-04 01:06 | -3.17838 | -52.18894 | 5369 ft | 133 kts | 44° |
| 2026-05-04 01:06 | -3.17133 | -52.18276 | 5807 ft | 134 kts | 44° |
| 2026-05-04 01:06 | -3.16431 | -52.17660 | 6246 ft | 135 kts | 44° |
| 2026-05-04 01:07 | -3.15724 | -52.17040 | 6670 ft | 136 kts | 44° |
| 2026-05-04 01:07 | -3.15006 | -52.16410 | 7071 ft | 138 kts | 44° |
| 2026-05-04 01:07 | -3.14281 | -52.15774 | 7475 ft | 139 kts | 44° |
| 2026-05-04 01:07 | -3.13552 | -52.15134 | 7890 ft | 140 kts | 44° |
| 2026-05-04 01:08 | -3.13067 | -52.14710 | 8169 ft | 140 kts | 44° |
| 2026-05-04 01:08 | -3.12329 | -52.14063 | 8586 ft | 141 kts | 44° |
| 2026-05-04 01:08 | -3.11335 | -52.13190 | 9135 ft | 143 kts | 44° |
| 2026-05-04 01:08 | -3.10838 | -52.12756 | 9406 ft | 144 kts | 44° |
| 2026-05-04 01:09 | -3.10081 | -52.12092 | 9832 ft | 144 kts | 44° |
| 2026-05-04 01:09 | -3.09322 | -52.11426 | 10211 ft | 146 kts | 44° |
| 2026-05-04 01:09 | -3.08557 | -52.10756 | 10579 ft | 147 kts | 44° |
| 2026-05-04 01:09 | -3.07537 | -52.09861 | 11082 ft | 148 kts | 44° |
| 2026-05-04 01:10 | -3.07011 | -52.09400 | 11338 ft | 149 kts | 44° |
| 2026-05-04 01:10 | -3.06227 | -52.08712 | 11709 ft | 150 kts | 44° |
| 2026-05-04 01:10 | -3.05447 | -52.08029 | 12078 ft | 151 kts | 44° |
| 2026-05-04 01:10 | -3.04653 | -52.07332 | 12458 ft | 152 kts | 44° |
| 2026-05-04 01:11 | -3.03848 | -52.06627 | 12827 ft | 154 kts | 44° |
| 2026-05-04 01:11 | -3.03040 | -52.05919 | 13202 ft | 155 kts | 44° |
| 2026-05-04 01:11 | -3.02226 | -52.05205 | 13569 ft | 156 kts | 44° |
| 2026-05-04 01:11 | -3.01406 | -52.04487 | 13912 ft | 158 kts | 44° |
| 2026-05-04 01:12 | -3.00574 | -52.03757 | 14230 ft | 159 kts | 44° |
| 2026-05-04 01:12 | -2.99738 | -52.03025 | 14551 ft | 160 kts | 44° |
| 2026-05-04 01:12 | -2.98897 | -52.02288 | 14875 ft | 161 kts | 44° |
| 2026-05-04 01:12 | -2.98052 | -52.01547 | 15202 ft | 162 kts | 44° |
| 2026-05-04 01:13 | -2.97201 | -52.00806 | 15533 ft | 162 kts | 43° |
| 2026-05-04 01:13 | -2.96350 | -52.00058 | 15772 ft | 164 kts | 44° |
| 2026-05-04 01:13 | -2.95488 | -51.99297 | 16044 ft | 165 kts | 44° |
| 2026-05-04 01:13 | -2.94623 | -51.98541 | 16319 ft | 166 kts | 44° |
| 2026-05-04 01:14 | -2.93756 | -51.97781 | 16583 ft | 166 kts | 44° |
| 2026-05-04 01:14 | -2.92885 | -51.97019 | 16849 ft | 167 kts | 44° |
| 2026-05-04 01:14 | -2.92010 | -51.96251 | 17111 ft | 168 kts | 44° |
| 2026-05-04 01:14 | -2.91126 | -51.95477 | 17374 ft | 169 kts | 44° |
| 2026-05-04 01:15 | -2.90252 | -51.94712 | 17632 ft | 170 kts | 43° |
| 2026-05-04 01:15 | -2.89362 | -51.93932 | 17892 ft | 170 kts | 44° |
| 2026-05-04 01:15 | -2.88467 | -51.93147 | 18149 ft | 171 kts | 44° |
| 2026-05-04 01:15 | -2.87570 | -51.92361 | 18377 ft | 172 kts | 43° |
| 2026-05-04 01:16 | -2.86669 | -51.91573 | 18593 ft | 173 kts | 43° |
| 2026-05-04 01:16 | -2.85760 | -51.90777 | 18805 ft | 173 kts | 43° |
| 2026-05-04 01:16 | -2.84851 | -51.89980 | 19015 ft | 174 kts | 43° |
| 2026-05-04 01:16 | -2.83936 | -51.89179 | 19226 ft | 175 kts | 43° |
| 2026-05-04 01:17 | -2.83020 | -51.88376 | 19432 ft | 176 kts | 43° |
| 2026-05-04 01:17 | -2.82095 | -51.87567 | 19634 ft | 177 kts | 43° |
| 2026-05-04 01:17 | -2.81170 | -51.86756 | 19839 ft | 177 kts | 43° |
| 2026-05-04 01:17 | -2.80238 | -51.85939 | 20045 ft | 178 kts | 43° |
| 2026-05-04 01:18 | -2.79302 | -51.85120 | 20239 ft | 179 kts | 43° |
| 2026-05-04 01:18 | -2.78378 | -51.84309 | 20447 ft | 179 kts | 43° |
| 2026-05-04 01:18 | -2.77433 | -51.83482 | 20643 ft | 180 kts | 43° |
| 2026-05-04 01:18 | -2.76490 | -51.82655 | 20842 ft | 181 kts | 43° |
| 2026-05-04 01:19 | -2.75540 | -51.81824 | 21041 ft | 182 kts | 43° |
| 2026-05-04 01:19 | -2.74586 | -51.80988 | 21234 ft | 182 kts | 43° |
| 2026-05-04 01:19 | -2.73630 | -51.80152 | 21433 ft | 183 kts | 43° |
| 2026-05-04 01:19 | -2.72666 | -51.79306 | 21616 ft | 184 kts | 43° |
| 2026-05-04 01:20 | -2.71700 | -51.78460 | 21803 ft | 185 kts | 43° |
| 2026-05-04 01:20 | -2.70734 | -51.77613 | 21993 ft | 185 kts | 43° |
| 2026-05-04 01:20 | -2.69761 | -51.76762 | 22176 ft | 186 kts | 43° |
| 2026-05-04 01:20 | -2.68785 | -51.75907 | 22358 ft | 187 kts | 43° |
| 2026-05-04 01:21 | -2.67805 | -51.75049 | 22534 ft | 187 kts | 43° |
| 2026-05-04 01:21 | -2.66820 | -51.74186 | 22713 ft | 188 kts | 43° |
| 2026-05-04 01:21 | -2.65832 | -51.73321 | 22887 ft | 189 kts | 43° |
| 2026-05-04 01:21 | -2.64844 | -51.72457 | 23061 ft | 190 kts | 43° |
| 2026-05-04 01:22 | -2.63849 | -51.71586 | 23235 ft | 190 kts | 43° |
| 2026-05-04 01:22 | -2.62850 | -51.70711 | 23405 ft | 191 kts | 43° |
| 2026-05-04 01:22 | -2.61865 | -51.69849 | 23566 ft | 192 kts | 43° |
| 2026-05-04 01:22 | -2.60862 | -51.68970 | 23706 ft | 192 kts | 43° |
| 2026-05-04 01:23 | -2.59853 | -51.68085 | 23848 ft | 193 kts | 43° |
| 2026-05-04 01:23 | -2.58844 | -51.67202 | 23985 ft | 193 kts | 43° |
| 2026-05-04 01:23 | -2.57829 | -51.66314 | 24121 ft | 194 kts | 43° |
| 2026-05-04 01:23 | -2.56813 | -51.65424 | 24254 ft | 194 kts | 43° |
| 2026-05-04 01:24 | -2.55793 | -51.64531 | 24389 ft | 195 kts | 43° |
| 2026-05-04 01:24 | -2.54774 | -51.63639 | 24524 ft | 195 kts | 43° |
| 2026-05-04 01:24 | -2.53750 | -51.62743 | 24657 ft | 195 kts | 43° |
| 2026-05-04 01:24 | -2.52736 | -51.61856 | 24787 ft | 196 kts | 43° |
| 2026-05-04 01:25 | -2.51711 | -51.60957 | 24917 ft | 196 kts | 43° |
| 2026-05-04 01:25 | -2.50683 | -51.60058 | 25046 ft | 197 kts | 42° |
| 2026-05-04 01:25 | -2.49651 | -51.59155 | 25176 ft | 197 kts | 43° |
| 2026-05-04 01:25 | -2.48618 | -51.58250 | 25305 ft | 198 kts | 43° |
| 2026-05-04 01:26 | -2.47579 | -51.57340 | 25433 ft | 198 kts | 43° |
| 2026-05-04 01:26 | -2.46537 | -51.56428 | 25559 ft | 199 kts | 42° |
| 2026-05-04 01:26 | -2.45495 | -51.55516 | 25684 ft | 199 kts | 43° |
| 2026-05-04 01:26 | -2.44450 | -51.54603 | 25806 ft | 200 kts | 43° |
| 2026-05-04 01:27 | -2.43406 | -51.53686 | 25933 ft | 200 kts | 43° |
| 2026-05-04 01:27 | -2.42357 | -51.52769 | 26060 ft | 201 kts | 42° |
| 2026-05-04 01:27 | -2.41304 | -51.51848 | 26181 ft | 201 kts | 42° |
| 2026-05-04 01:27 | -2.40247 | -51.50923 | 26302 ft | 202 kts | 42° |
| 2026-05-04 01:28 | -2.39191 | -51.49998 | 26419 ft | 202 kts | 42° |
| 2026-05-04 01:28 | -2.38130 | -51.49069 | 26557 ft | 202 kts | 42° |
| 2026-05-04 01:28 | -2.37074 | -51.48145 | 26677 ft | 202 kts | 42° |
| 2026-05-04 01:28 | -2.36013 | -51.47217 | 26793 ft | 203 kts | 42° |
| 2026-05-04 01:29 | -2.34953 | -51.46290 | 26908 ft | 203 kts | 42° |
| 2026-05-04 01:29 | -2.33887 | -51.45357 | 27023 ft | 203 kts | 42° |
| 2026-05-04 01:29 | -2.32822 | -51.44424 | 27137 ft | 204 kts | 42° |
| 2026-05-04 01:29 | -2.31767 | -51.43502 | 27248 ft | 204 kts | 42° |
| 2026-05-04 01:30 | -2.30684 | -51.42556 | 27363 ft | 205 kts | 42° |
| 2026-05-04 01:30 | -2.29626 | -51.41629 | 27473 ft | 205 kts | 42° |
| 2026-05-04 01:30 | -2.28550 | -51.40688 | 27583 ft | 205 kts | 42° |
| 2026-05-04 01:30 | -2.27475 | -51.39748 | 27690 ft | 206 kts | 42° |
| 2026-05-04 01:31 | -2.26397 | -51.38805 | 27796 ft | 206 kts | 42° |
| 2026-05-04 01:31 | -2.25315 | -51.37858 | 27900 ft | 207 kts | 42° |
| 2026-05-04 01:31 | -2.24236 | -51.36913 | 28005 ft | 207 kts | 42° |
| 2026-05-04 01:31 | -2.23148 | -51.35962 | 28110 ft | 207 kts | 42° |
| 2026-05-04 01:32 | -2.22062 | -51.35011 | 28203 ft | 208 kts | 42° |
| 2026-05-04 01:32 | -2.20971 | -51.34057 | 28314 ft | 208 kts | 42° |
| 2026-05-04 01:32 | -2.19878 | -51.33101 | 28409 ft | 209 kts | 42° |
| 2026-05-04 01:32 | -2.18795 | -51.32153 | 28502 ft | 210 kts | 42° |
| 2026-05-04 01:33 | -2.17682 | -51.31179 | 28607 ft | 210 kts | 42° |
| 2026-05-04 01:33 | -2.16583 | -51.30217 | 28709 ft | 210 kts | 42° |
| 2026-05-04 01:33 | -2.15492 | -51.29264 | 28805 ft | 211 kts | 42° |
| 2026-05-04 01:33 | -2.14385 | -51.28296 | 28906 ft | 211 kts | 42° |
| 2026-05-04 01:34 | -2.13278 | -51.27327 | 28989 ft | 213 kts | 42° |
| 2026-05-04 01:34 | -2.12152 | -51.26340 | 28991 ft | 218 kts | 42° |
| 2026-05-04 01:34 | -2.11001 | -51.25333 | 28999 ft | 223 kts | 42° |
| 2026-05-04 01:34 | -2.09821 | -51.24301 | 29001 ft | 227 kts | 42° |
| 2026-05-04 01:35 | -2.08619 | -51.23249 | 29004 ft | 232 kts | 42° |
| 2026-05-04 01:35 | -2.07390 | -51.22175 | 29005 ft | 237 kts | 42° |
| 2026-05-04 01:35 | -2.06137 | -51.21080 | 29006 ft | 241 kts | 42° |
| 2026-05-04 01:35 | -2.04864 | -51.19966 | 29004 ft | 245 kts | 42° |
| 2026-05-04 01:36 | -2.03571 | -51.18836 | 29004 ft | 249 kts | 42° |
| 2026-05-04 01:36 | -2.02257 | -51.17688 | 29009 ft | 252 kts | 42° |
| 2026-05-04 01:36 | -2.00929 | -51.16525 | 29006 ft | 256 kts | 42° |
| 2026-05-04 01:36 | -1.99580 | -51.15344 | 29009 ft | 259 kts | 42° |
| 2026-05-04 01:37 | -1.98220 | -51.14157 | 29006 ft | 261 kts | 42° |
| 2026-05-04 01:37 | -1.96843 | -51.12953 | 29007 ft | 264 kts | 42° |
| 2026-05-04 01:37 | -1.95455 | -51.11739 | 29008 ft | 266 kts | 42° |
| 2026-05-04 01:37 | -1.94055 | -51.10516 | 29008 ft | 268 kts | 42° |
| 2026-05-04 01:38 | -1.92643 | -51.09282 | 29008 ft | 270 kts | 42° |
| 2026-05-04 01:38 | -1.91225 | -51.08041 | 29007 ft | 272 kts | 42° |
| 2026-05-04 01:38 | -1.89798 | -51.06793 | 29007 ft | 273 kts | 42° |
| 2026-05-04 01:38 | -1.88383 | -51.05555 | 29009 ft | 275 kts | 42° |
| 2026-05-04 01:39 | -1.86941 | -51.04294 | 29008 ft | 276 kts | 42° |
| 2026-05-04 01:39 | -1.85491 | -51.03028 | 29007 ft | 277 kts | 42° |
| 2026-05-04 01:39 | -1.84036 | -51.01757 | 29008 ft | 278 kts | 42° |
| 2026-05-04 01:39 | -1.82575 | -51.00479 | 29008 ft | 279 kts | 42° |
| 2026-05-04 01:40 | -1.81220 | -50.99107 | 28996 ft | 278 kts | 54° |
| 2026-05-04 01:40 | -1.80290 | -50.97415 | 28989 ft | 278 kts | 69° |
| 2026-05-04 01:40 | -1.79847 | -50.95538 | 28990 ft | 278 kts | 84° |
| 2026-05-04 01:40 | -1.79781 | -50.93608 | 28998 ft | 278 kts | 88° |
| 2026-05-04 01:41 | -1.79719 | -50.91673 | 29001 ft | 279 kts | 88° |
| 2026-05-04 01:41 | -1.79651 | -50.89763 | 29003 ft | 279 kts | 88° |
| 2026-05-04 01:41 | -1.79588 | -50.87821 | 29003 ft | 279 kts | 88° |
| 2026-05-04 01:41 | -1.79528 | -50.85878 | 29005 ft | 280 kts | 88° |
| 2026-05-04 01:42 | -1.79467 | -50.83936 | 29006 ft | 280 kts | 88° |
| 2026-05-04 01:42 | -1.79404 | -50.81990 | 29006 ft | 280 kts | 88° |
| 2026-05-04 01:42 | -1.79339 | -50.80042 | 29006 ft | 280 kts | 88° |
| 2026-05-04 01:42 | -1.79277 | -50.78089 | 29006 ft | 280 kts | 88° |
| 2026-05-04 01:43 | -1.79215 | -50.76137 | 29005 ft | 280 kts | 88° |
| 2026-05-04 01:43 | -1.79152 | -50.74188 | 29006 ft | 281 kts | 88° |
| 2026-05-04 01:43 | -1.79088 | -50.72237 | 29005 ft | 281 kts | 88° |
| 2026-05-04 01:43 | -1.79025 | -50.70288 | 29005 ft | 281 kts | 88° |
| 2026-05-04 01:44 | -1.78963 | -50.68359 | 29008 ft | 281 kts | 88° |
| 2026-05-04 01:44 | -1.78900 | -50.66406 | 29008 ft | 281 kts | 88° |
| 2026-05-04 01:44 | -1.78836 | -50.64458 | 29005 ft | 281 kts | 88° |
| 2026-05-04 01:44 | -1.78773 | -50.62505 | 29004 ft | 281 kts | 88° |
| 2026-05-04 01:45 | -1.78710 | -50.60551 | 29004 ft | 281 kts | 88° |
| 2026-05-04 01:45 | -1.78646 | -50.58595 | 29004 ft | 281 kts | 88° |
| 2026-05-04 01:45 | -1.78519 | -50.54681 | 29003 ft | 281 kts | 88° |
| 2026-05-04 01:46 | -1.78456 | -50.52729 | 29000 ft | 282 kts | 88° |
| 2026-05-04 01:46 | -1.78393 | -50.50775 | 29000 ft | 282 kts | 88° |
| 2026-05-04 01:46 | -1.78329 | -50.48814 | 29000 ft | 282 kts | 88° |
| 2026-05-04 01:46 | -1.78266 | -50.46856 | 29000 ft | 282 kts | 88° |
| 2026-05-04 01:47 | -1.78202 | -50.44895 | 28996 ft | 282 kts | 88° |
| 2026-05-04 01:47 | -1.78139 | -50.42936 | 28996 ft | 282 kts | 88° |
| 2026-05-04 01:47 | -1.78074 | -50.40977 | 28996 ft | 282 kts | 88° |
| 2026-05-04 01:47 | -1.78011 | -50.39019 | 28995 ft | 282 kts | 88° |
| 2026-05-04 01:48 | -1.77947 | -50.37058 | 28997 ft | 282 kts | 88° |
| 2026-05-04 01:48 | -1.77884 | -50.35117 | 28997 ft | 283 kts | 88° |
| 2026-05-04 01:48 | -1.77820 | -50.33152 | 28997 ft | 283 kts | 88° |
| 2026-05-04 01:48 | -1.77756 | -50.31187 | 28997 ft | 283 kts | 88° |
| 2026-05-04 01:49 | -1.77693 | -50.29222 | 28997 ft | 283 kts | 88° |
| 2026-05-04 01:49 | -1.77627 | -50.27253 | 28997 ft | 283 kts | 88° |
| 2026-05-04 01:49 | -1.77564 | -50.25286 | 28997 ft | 283 kts | 88° |
| 2026-05-04 01:49 | -1.77499 | -50.23308 | 28997 ft | 283 kts | 88° |
| 2026-05-04 01:50 | -1.77436 | -50.21337 | 28995 ft | 283 kts | 88° |
| 2026-05-04 01:50 | -1.77372 | -50.19370 | 28996 ft | 283 kts | 88° |
| 2026-05-04 01:50 | -1.77307 | -50.17401 | 28995 ft | 283 kts | 88° |
| 2026-05-04 01:50 | -1.77242 | -50.15431 | 28995 ft | 284 kts | 88° |
| 2026-05-04 01:51 | -1.77179 | -50.13486 | 28995 ft | 284 kts | 88° |
| 2026-05-04 01:51 | -1.77115 | -50.11511 | 28995 ft | 284 kts | 88° |
| 2026-05-04 01:51 | -1.76936 | -50.09546 | 28999 ft | 284 kts | 82° |
| 2026-05-04 01:51 | -1.76655 | -50.07590 | 28999 ft | 284 kts | 82° |
| 2026-05-04 01:52 | -1.76385 | -50.05633 | 28998 ft | 284 kts | 82° |
| 2026-05-04 01:52 | -1.76124 | -50.03666 | 28998 ft | 284 kts | 82° |
| 2026-05-04 01:52 | -1.75865 | -50.01732 | 28998 ft | 284 kts | 82° |
| 2026-05-04 01:52 | -1.75600 | -49.99776 | 28998 ft | 284 kts | 82° |
| 2026-05-04 01:53 | -1.75335 | -49.97820 | 29001 ft | 284 kts | 82° |
| 2026-05-04 01:53 | -1.75069 | -49.95858 | 28998 ft | 284 kts | 82° |
| 2026-05-04 01:53 | -1.74803 | -49.93897 | 28998 ft | 284 kts | 82° |
| 2026-05-04 01:53 | -1.74538 | -49.91937 | 28997 ft | 284 kts | 82° |
| 2026-05-04 01:54 | -1.74273 | -49.89977 | 28996 ft | 284 kts | 82° |
| 2026-05-04 01:54 | -1.74008 | -49.88020 | 28996 ft | 284 kts | 82° |
| 2026-05-04 01:54 | -1.73743 | -49.86065 | 28996 ft | 284 kts | 82° |
| 2026-05-04 01:54 | -1.73478 | -49.84110 | 28995 ft | 284 kts | 82° |
| 2026-05-04 01:55 | -1.73216 | -49.82170 | 28997 ft | 284 kts | 82° |
| 2026-05-04 01:55 | -1.72951 | -49.80206 | 28997 ft | 284 kts | 82° |
| 2026-05-04 01:55 | -1.72693 | -49.78264 | 28858 ft | 277 kts | 83° |
| 2026-05-04 01:55 | -1.72445 | -49.76322 | 28357 ft | 283 kts | 82° |
| 2026-05-04 01:56 | -1.72176 | -49.74391 | 27978 ft | 278 kts | 82° |
| 2026-05-04 01:56 | -1.71999 | -49.73096 | 27570 ft | 278 kts | 82° |
| 2026-05-04 01:56 | -1.71654 | -49.70577 | 26865 ft | 275 kts | 82° |
| 2026-05-04 01:56 | -1.71479 | -49.69299 | 26517 ft | 273 kts | 82° |
| 2026-05-04 01:57 | -1.71229 | -49.67456 | 26013 ft | 270 kts | 82° |
| 2026-05-04 01:57 | -1.70978 | -49.65605 | 25511 ft | 267 kts | 82° |
| 2026-05-04 01:57 | -1.70729 | -49.63767 | 25020 ft | 265 kts | 82° |
| 2026-05-04 01:57 | -1.70483 | -49.61953 | 24525 ft | 262 kts | 82° |
| 2026-05-04 01:58 | -1.70239 | -49.60153 | 24049 ft | 260 kts | 82° |
| 2026-05-04 01:58 | -1.69998 | -49.58373 | 23573 ft | 257 kts | 82° |
| 2026-05-04 01:58 | -1.69759 | -49.56609 | 23049 ft | 255 kts | 82° |
| 2026-05-04 01:58 | -1.69525 | -49.54881 | 22525 ft | 252 kts | 83° |
| 2026-05-04 01:59 | -1.69291 | -49.53157 | 22001 ft | 250 kts | 83° |
| 2026-05-04 01:59 | -1.69058 | -49.51438 | 21461 ft | 248 kts | 83° |
| 2026-05-04 01:59 | -1.68827 | -49.49734 | 20904 ft | 245 kts | 83° |
| 2026-05-04 01:59 | -1.68600 | -49.48056 | 20360 ft | 243 kts | 83° |
| 2026-05-04 02:00 | -1.68374 | -49.46387 | 19815 ft | 240 kts | 83° |
| 2026-05-04 02:00 | -1.68078 | -49.44204 | 19101 ft | 237 kts | 83° |
| 2026-05-04 02:00 | -1.67931 | -49.43123 | 18745 ft | 236 kts | 83° |
| 2026-05-04 02:00 | -1.67711 | -49.41505 | 18191 ft | 233 kts | 83° |
| 2026-05-04 02:01 | -1.67492 | -49.39902 | 17565 ft | 231 kts | 83° |
| 2026-05-04 02:01 | -1.67276 | -49.38313 | 16945 ft | 229 kts | 83° |
| 2026-05-04 02:01 | -1.67063 | -49.36744 | 16338 ft | 226 kts | 83° |
| 2026-05-04 02:01 | -1.66851 | -49.35192 | 15733 ft | 224 kts | 83° |
| 2026-05-04 02:02 | -1.66646 | -49.33682 | 15145 ft | 221 kts | 83° |
| 2026-05-04 02:02 | -1.66439 | -49.32166 | 14555 ft | 219 kts | 83° |
| 2026-05-04 02:02 | -1.66235 | -49.30663 | 13968 ft | 217 kts | 83° |
| 2026-05-04 02:02 | -1.66033 | -49.29184 | 13347 ft | 213 kts | 83° |
| 2026-05-04 02:03 | -1.65835 | -49.27725 | 12691 ft | 211 kts | 83° |
| 2026-05-04 02:03 | -1.65639 | -49.26280 | 12078 ft | 208 kts | 83° |
| 2026-05-04 02:03 | -1.65450 | -49.24922 | 12002 ft | 185 kts | 83° |
| 2026-05-04 02:03 | -1.65278 | -49.23710 | 11994 ft | 168 kts | 83° |
| 2026-05-04 02:04 | -1.65123 | -49.22597 | 11985 ft | 157 kts | 83° |
| 2026-05-04 02:04 | -1.64977 | -49.21518 | 11788 ft | 160 kts | 83° |
| 2026-05-04 02:04 | -1.64832 | -49.20406 | 11602 ft | 160 kts | 83° |
| 2026-05-04 02:04 | -1.64683 | -49.19306 | 11437 ft | 160 kts | 83° |
| 2026-05-04 02:05 | -1.64533 | -49.18207 | 11272 ft | 159 kts | 83° |
| 2026-05-04 02:05 | -1.64385 | -49.17121 | 11103 ft | 159 kts | 83° |
| 2026-05-04 02:05 | -1.64235 | -49.16023 | 10931 ft | 159 kts | 83° |
| 2026-05-04 02:05 | -1.64086 | -49.14932 | 10768 ft | 158 kts | 83° |
| 2026-05-04 02:06 | -1.63939 | -49.13848 | 10594 ft | 158 kts | 83° |
| 2026-05-04 02:06 | -1.63790 | -49.12762 | 10422 ft | 157 kts | 83° |
| 2026-05-04 02:06 | -1.63643 | -49.11679 | 10252 ft | 157 kts | 83° |
| 2026-05-04 02:06 | -1.63496 | -49.10598 | 10080 ft | 157 kts | 83° |
| 2026-05-04 02:07 | -1.63349 | -49.09521 | 9903 ft | 156 kts | 83° |
| 2026-05-04 02:07 | -1.63203 | -49.08460 | 9717 ft | 156 kts | 83° |
| 2026-05-04 02:07 | -1.63055 | -49.07373 | 9381 ft | 165 kts | 82° |
| 2026-05-04 02:07 | -1.62860 | -49.06090 | 8912 ft | 207 kts | 81° |
| 2026-05-04 02:08 | -1.62651 | -49.04571 | 8459 ft | 230 kts | 83° |
| 2026-05-04 02:08 | -1.62454 | -49.02943 | 8003 ft | 240 kts | 83° |
| 2026-05-04 02:08 | -1.62231 | -49.01277 | 7546 ft | 244 kts | 82° |
| 2026-05-04 02:08 | -1.61995 | -48.99587 | 7085 ft | 245 kts | 83° |
| 2026-05-04 02:09 | -1.61762 | -48.97898 | 6630 ft | 245 kts | 83° |
| 2026-05-04 02:09 | -1.61533 | -48.96213 | 6159 ft | 244 kts | 83° |
| 2026-05-04 02:09 | -1.61305 | -48.94538 | 5670 ft | 243 kts | 82° |
| 2026-05-04 02:09 | -1.61074 | -48.92871 | 5190 ft | 241 kts | 82° |
| 2026-05-04 02:10 | -1.60853 | -48.91237 | 4720 ft | 239 kts | 82° |
| 2026-05-04 02:10 | -1.60625 | -48.89577 | 4215 ft | 237 kts | 82° |
| 2026-05-04 02:10 | -1.60403 | -48.87949 | 3734 ft | 235 kts | 82° |
| 2026-05-04 02:10 | -1.60180 | -48.86333 | 3254 ft | 233 kts | 81° |
| 2026-05-04 02:11 | -1.59966 | -48.84765 | 2774 ft | 230 kts | 81° |
| 2026-05-04 02:11 | -1.59752 | -48.83189 | 2291 ft | 227 kts | 81° |
| 2026-05-04 02:11 | -1.59537 | -48.81642 | 2005 ft | 218 kts | 81° |
| 2026-05-04 02:11 | -1.59335 | -48.80197 | 2002 ft | 203 kts | 81° |
| 2026-05-04 02:12 | -1.59145 | -48.78830 | 1995 ft | 195 kts | 80° |
| 2026-05-04 02:12 | -1.58962 | -48.77500 | 1989 ft | 190 kts | 78° |
| 2026-05-04 02:12 | -1.58400 | -48.76356 | 1999 ft | 185 kts | 45° |
| 2026-05-04 02:12 | -1.57361 | -48.75602 | 2003 ft | 185 kts | 39° |
| 2026-05-04 02:13 | -1.56420 | -48.74750 | 1992 ft | 184 kts | 46° |
| 2026-05-04 02:13 | -1.55534 | -48.73830 | 1996 ft | 183 kts | 47° |
| 2026-05-04 02:13 | -1.54642 | -48.72914 | 2000 ft | 185 kts | 46° |
| 2026-05-04 02:13 | -1.53739 | -48.71991 | 2003 ft | 186 kts | 46° |
| 2026-05-04 02:14 | -1.52832 | -48.71066 | 1995 ft | 185 kts | 47° |
| 2026-05-04 02:14 | -1.51935 | -48.70150 | 2001 ft | 184 kts | 46° |
| 2026-05-04 02:14 | -1.51034 | -48.69231 | 1999 ft | 185 kts | 47° |
| 2026-05-04 02:14 | -1.50135 | -48.68312 | 1994 ft | 185 kts | 46° |
| 2026-05-04 02:15 | -1.49222 | -48.67387 | 2000 ft | 193 kts | 46° |
| 2026-05-04 02:15 | -1.48251 | -48.66399 | 2008 ft | 203 kts | 46° |
| 2026-05-04 02:15 | -1.47256 | -48.65373 | 2012 ft | 209 kts | 47° |
| 2026-05-04 02:15 | -1.46235 | -48.64325 | 2012 ft | 211 kts | 47° |
| 2026-05-04 02:16 | -1.45219 | -48.63285 | 2011 ft | 213 kts | 46° |
| 2026-05-04 02:16 | -1.44165 | -48.62212 | 2011 ft | 214 kts | 47° |
| 2026-05-04 02:16 | -1.43138 | -48.61160 | 2008 ft | 215 kts | 47° |
| 2026-05-04 02:16 | -1.42094 | -48.60093 | 2005 ft | 214 kts | 47° |
| 2026-05-04 02:17 | -1.41053 | -48.59033 | 2006 ft | 214 kts | 47° |
| 2026-05-04 02:17 | -1.40011 | -48.57969 | 1995 ft | 214 kts | 47° |
| 2026-05-04 02:17 | -1.38969 | -48.56902 | 1992 ft | 213 kts | 47° |
| 2026-05-04 02:17 | -1.37941 | -48.55849 | 1993 ft | 212 kts | 47° |
| 2026-05-04 02:18 | -1.36904 | -48.54794 | 1991 ft | 212 kts | 46° |
| 2026-05-04 02:18 | -1.35876 | -48.53745 | 1997 ft | 211 kts | 47° |
| 2026-05-04 02:18 | -1.34820 | -48.52687 | 2002 ft | 219 kts | 46° |
| 2026-05-04 02:18 | -1.33768 | -48.51559 | 2001 ft | 224 kts | 52° |
| 2026-05-04 02:19 | -1.32628 | -48.50505 | 1996 ft | 218 kts | 43° |
| 2026-05-04 02:19 | -1.31808 | -48.49476 | 1996 ft | 171 kts | 69° |
| 2026-05-04 02:19 | -1.31611 | -48.48433 | 1982 ft | 139 kts | 92° |
| 2026-05-04 02:19 | -1.32066 | -48.47652 | 1983 ft | 131 kts | 133° |
| 2026-05-04 02:20 | -1.32846 | -48.47215 | 1933 ft | 131 kts | 165° |
| 2026-05-04 02:20 | -1.33760 | -48.47304 | 1559 ft | 137 kts | 184° |
| 2026-05-04 02:20 | -1.34697 | -48.47423 | 1047 ft | 135 kts | 178° |
| 2026-05-04 02:20 | -1.35562 | -48.47470 | 781 ft | 107 kts | 178° |
| 2026-05-04 02:21 | -1.36267 | -48.47492 | 432 ft | 95 kts | 179° |
| 2026-05-04 02:21 | -1.36962 | -48.47533 | 209 ft | 102 kts | 185° |
| 2026-05-04 02:21 | -1.37617 | -48.47591 | 48 ft | 85 kts | 184° |
| 2026-05-04 02:21 | -1.38128 | -48.47637 | 37 ft | 63 kts | 185° |
| 2026-05-04 02:22 | -1.38408 | -48.47656 | 37 ft | 10 kts | 123° |
| 2026-05-04 02:22 | -1.38395 | -48.47603 | 37 ft | 4 kts | 94° |
| 2026-05-04 02:22 | -1.38398 | -48.47545 | 38 ft | 13 kts | 99° |
| 2026-05-04 02:22 | -1.38386 | -48.47488 | 38 ft | 10 kts | 21° |
| 2026-05-04 02:23 | -1.38333 | -48.47477 | 38 ft | 6 kts | 45° |
| 2026-05-04 02:23 | -1.38338 | -48.47441 | 38 ft | 4 kts | 174° |
| 2026-05-04 02:23 | -1.38349 | -48.47446 | 38 ft | 2 kts | 250° |
| 2026-05-04 02:23 | -1.38349 | -48.47453 | 38 ft | 0 kts | 275° |